Terminal Aerodrome Forecast
Issued by NWS Paducah, KY

Home | Current Version | Previous Version | Text Only | Print | Product List | Glossary On
Versions: 1 2 3 4 5 6 7 8 9 10 11 12 13 14 15 16 17 18 19 20 21 22 23 24
463
FTUS43 KPAH 151126
TAFEVV
TAF
KEVV 151126Z 1512/1612 05004KT 6SM BR BKN007 OVC050
      TEMPO 1518/1522 3SM -RA BR OVC005
     FM160000 05004KT 4SM BR OVC005=

USA.gov is the U.S. government's official web portal to all federal, state and local government web resources and services.